sensor_id;sensor_type;location;lat;lon;timestamp;pressure;altitude;pressure_sealevel;temperature;humidity
8890;BME280;4481;43.406;24.454;2023-04-27T00:01:55;76952.78;;;-144.09;100.00
8890;BME280;4481;43.406;24.454;2023-04-27T00:04:21;76948.63;;;-144.09;100.00
8890;BME280;4481;43.406;24.454;2023-04-27T00:06:47;76950.69;;;-144.09;100.00
8890;BME280;4481;43.406;24.454;2023-04-27T00:09:13;76967.41;;;-144.09;100.00
8890;BME280;4481;43.406;24.454;2023-04-27T00:11:40;76952.78;;;-144.09;100.00
8890;BME280;4481;43.406;24.454;2023-04-27T00:14:07;76969.50;;;-144.09;100.00
8890;BME280;4481;43.406;24.454;2023-04-27T00:16:33;76992.50;;;-144.09;100.00
8890;BME280;4481;43.406;24.454;2023-04-27T00:18:59;77013.41;;;-144.09;100.00
8890;BME280;4481;43.406;24.454;2023-04-27T00:21:25;77000.88;;;-144.09;100.00
8890;BME280;4481;43.406;24.454;2023-04-27T00:23:53;76979.97;;;-144.09;100.00
8890;BME280;4481;43.406;24.454;2023-04-27T00:26:19;76990.41;;;-144.09;100.00
8890;BME280;4481;43.406;24.454;2023-04-27T00:28:47;77000.88;;;-144.09;100.00
8890;BME280;4481;43.406;24.454;2023-04-27T00:31:13;77015.50;;;-144.09;100.00
8890;BME280;4481;43.406;24.454;2023-04-27T00:33:39;76996.69;;;-144.09;100.00
8890;BME280;4481;43.406;24.454;2023-04-27T00:36:06;76992.50;;;-144.09;100.00
8890;BME280;4481;43.406;24.454;2023-04-27T00:38:33;77009.22;;;-144.09;100.00
8890;BME280;4481;43.406;24.454;2023-04-27T00:41:02;77042.66;;;-144.09;100.00
8890;BME280;4481;43.406;24.454;2023-04-27T00:43:28;77040.56;;;-144.09;100.00
8890;BME280;4481;43.406;24.454;2023-04-27T00:45:56;77021.75;;;-144.09;100.00
8890;BME280;4481;43.406;24.454;2023-04-27T00:48:22;77032.22;;;-144.09;100.00
8890;BME280;4481;43.406;24.454;2023-04-27T00:50:49;77023.84;;;-144.09;100.00
8890;BME280;4481;43.406;24.454;2023-04-27T00:53:15;77025.94;;;-144.09;100.00
8890;BME280;4481;43.406;24.454;2023-04-27T00:55:42;77032.22;;;-144.09;100.00
8890;BME280;4481;43.406;24.454;2023-04-27T00:58:08;77032.22;;;-144.09;100.00
8890;BME280;4481;43.406;24.454;2023-04-27T01:00:34;77017.59;;;-144.09;100.00
8890;BME280;4481;43.406;24.454;2023-04-27T01:03:01;77032.22;;;-144.09;100.00
8890;BME280;4481;43.406;24.454;2023-04-27T01:05:29;77053.09;;;-144.09;100.00
8890;BME280;4481;43.406;24.454;2023-04-27T01:07:55;77067.75;;;-144.09;100.00
8890;BME280;4481;43.406;24.454;2023-04-27T01:10:21;77044.75;;;-144.09;100.00
8890;BME280;4481;43.406;24.454;2023-04-27T01:12:47;77059.38;;;-144.09;100.00
8890;BME280;4481;43.406;24.454;2023-04-27T01:15:14;77061.47;;;-144.09;100.00
8890;BME280;4481;43.406;24.454;2023-04-27T01:17:40;77078.19;;;-144.09;100.00
8890;BME280;4481;43.406;24.454;2023-04-27T01:20:09;77069.81;;;-144.09;100.00
8890;BME280;4481;43.406;24.454;2023-04-27T01:22:35;77071.91;;;-144.09;100.00
8890;BME280;4481;43.406;24.454;2023-04-27T01:25:03;77063.56;;;-144.09;100.00
8890;BME280;4481;43.406;24.454;2023-04-27T01:27:29;77094.91;;;-144.09;100.00
8890;BME280;4481;43.406;24.454;2023-04-27T01:29:55;77117.91;;;-144.09;100.00
8890;BME280;4481;43.406;24.454;2023-04-27T01:32:21;77132.53;;;-144.09;100.00
8890;BME280;4481;43.406;24.454;2023-04-27T01:34:47;77111.63;;;-144.09;100.00
8890;BME280;4481;43.406;24.454;2023-04-27T01:37:13;77109.53;;;-144.09;100.00
8890;BME280;4481;43.406;24.454;2023-04-27T01:39:40;77117.91;;;-144.09;100.00
8890;BME280;4481;43.406;24.454;2023-04-27T01:42:07;77124.16;;;-144.09;100.00
8890;BME280;4481;43.406;24.454;2023-04-27T01:44:33;77107.44;;;-144.09;100.00
8890;BME280;4481;43.406;24.454;2023-04-27T01:46:59;77136.69;;;-144.09;100.00
8890;BME280;4481;43.406;24.454;2023-04-27T01:49:26;77147.16;;;-144.09;100.00
8890;BME280;4481;43.406;24.454;2023-04-27T01:51:52;77132.53;;;-144.09;100.00
8890;BME280;4481;43.406;24.454;2023-04-27T01:54:18;77117.91;;;-144.09;100.00
8890;BME280;4481;43.406;24.454;2023-04-27T01:56:44;77140.88;;;-144.09;100.00
8890;BME280;4481;43.406;24.454;2023-04-27T01:59:11;77128.34;;;-144.09;100.00
8890;BME280;4481;43.406;24.454;2023-04-27T02:01:37;77145.06;;;-144.09;100.00
8890;BME280;4481;43.406;24.454;2023-04-27T02:04:03;77126.25;;;-144.09;100.00
8890;BME280;4481;43.406;24.454;2023-04-27T02:06:30;77147.16;;;-144.09;100.00
8890;BME280;4481;43.406;24.454;2023-04-27T02:08:56;77149.25;;;-144.09;100.00
8890;BME280;4481;43.406;24.454;2023-04-27T02:11:22;77140.88;;;-144.09;100.00
8890;BME280;4481;43.406;24.454;2023-04-27T02:13:48;77147.16;;;-144.09;100.00
8890;BME280;4481;43.406;24.454;2023-04-27T02:16:15;77136.69;;;-144.09;100.00
8890;BME280;4481;43.406;24.454;2023-04-27T02:18:41;77155.50;;;-144.09;100.00
8890;BME280;4481;43.406;24.454;2023-04-27T02:21:07;77138.78;;;-144.09;100.00
8890;BME280;4481;43.406;24.454;2023-04-27T02:23:34;77140.88;;;-144.09;100.00
8890;BME280;4481;43.406;24.454;2023-04-27T02:26:01;77161.78;;;-144.09;100.00
8890;BME280;4481;43.406;24.454;2023-04-27T02:28:27;77163.88;;;-144.09;100.00
8890;BME280;4481;43.406;24.454;2023-04-27T02:30:53;77161.78;;;-144.09;100.00
8890;BME280;4481;43.406;24.454;2023-04-27T02:33:20;77161.78;;;-144.09;100.00
8890;BME280;4481;43.406;24.454;2023-04-27T02:35:46;77155.50;;;-144.09;100.00
8890;BME280;4481;43.406;24.454;2023-04-27T02:38:12;77161.78;;;-144.09;100.00
8890;BME280;4481;43.406;24.454;2023-04-27T02:40:38;77178.50;;;-144.09;100.00
8890;BME280;4481;43.406;24.454;2023-04-27T02:43:04;77172.22;;;-144.09;100.00
8890;BME280;4481;43.406;24.454;2023-04-27T02:45:30;77172.22;;;-144.09;100.00
8890;BME280;4481;43.406;24.454;2023-04-27T02:47:57;77174.31;;;-144.09;100.00
8890;BME280;4481;43.406;24.454;2023-04-27T02:50:23;77172.22;;;-144.09;100.00
8890;BME280;4481;43.406;24.454;2023-04-27T02:52:50;77191.03;;;-144.09;100.00
8890;BME280;4481;43.406;24.454;2023-04-27T02:55:16;77184.78;;;-144.09;100.00
8890;BME280;4481;43.406;24.454;2023-04-27T02:57:42;77195.22;;;-144.09;100.00
8890;BME280;4481;43.406;24.454;2023-04-27T03:00:09;77182.69;;;-144.09;100.00
8890;BME280;4481;43.406;24.454;2023-04-27T03:02:35;77174.31;;;-144.09;100.00
8890;BME280;4481;43.406;24.454;2023-04-27T03:05:01;77180.59;;;-144.09;100.00
8890;BME280;4481;43.406;24.454;2023-04-27T03:07:30;77188.94;;;-144.09;100.00
8890;BME280;4481;43.406;24.454;2023-04-27T03:09:56;77182.69;;;-144.09;100.00
8890;BME280;4481;43.406;24.454;2023-04-27T03:12:22;77172.22;;;-144.09;100.00
8890;BME280;4481;43.406;24.454;2023-04-27T03:14:48;77178.50;;;-144.09;100.00
8890;BME280;4481;43.406;24.454;2023-04-27T03:17:14;77180.59;;;-144.09;100.00
8890;BME280;4481;43.406;24.454;2023-04-27T03:19:41;77174.31;;;-144.09;100.00
8890;BME280;4481;43.406;24.454;2023-04-27T03:22:07;77193.13;;;-144.09;100.00
8890;BME280;4481;43.406;24.454;2023-04-27T03:24:34;77214.03;;;-144.09;100.00
8890;BME280;4481;43.406;24.454;2023-04-27T03:27:00;77207.75;;;-144.09;100.00
8890;BME280;4481;43.406;24.454;2023-04-27T03:29:27;77216.13;;;-144.09;100.00
8890;BME280;4481;43.406;24.454;2023-04-27T03:31:53;77226.56;;;-144.09;100.00
8890;BME280;4481;43.406;24.454;2023-04-27T03:34:19;77216.13;;;-144.09;100.00
8890;BME280;4481;43.406;24.454;2023-04-27T03:36:46;77241.19;;;-144.09;100.00
8890;BME280;4481;43.406;24.454;2023-04-27T03:39:12;77251.66;;;-144.09;100.00
8890;BME280;4481;43.406;24.454;2023-04-27T03:41:39;77243.28;;;-144.09;100.00
8890;BME280;4481;43.406;24.454;2023-04-27T03:44:05;77232.84;;;-144.09;100.00
8890;BME280;4481;43.406;24.454;2023-04-27T03:46:31;77241.19;;;-144.09;100.00
8890;BME280;4481;43.406;24.454;2023-04-27T03:48:57;77249.56;;;-144.09;100.00
8890;BME280;4481;43.406;24.454;2023-04-27T03:51:23;77245.38;;;-144.09;100.00
8890;BME280;4481;43.406;24.454;2023-04-27T03:53:50;77264.19;;;-144.09;100.00
8890;BME280;4481;43.406;24.454;2023-04-27T03:56:16;77266.28;;;-144.09;100.00
8890;BME280;4481;43.406;24.454;2023-04-27T03:58:43;77272.56;;;-144.09;100.00
8890;BME280;4481;43.406;24.454;2023-04-27T04:01:09;77280.91;;;-144.09;100.00
8890;BME280;4481;43.406;24.454;2023-04-27T04:03:35;77289.28;;;-144.09;100.00
8890;BME280;4481;43.406;24.454;2023-04-27T04:06:01;77293.44;;;-144.09;100.00
8890;BME280;4481;43.406;24.454;2023-04-27T04:08:28;77274.63;;;-144.09;100.00
8890;BME280;4481;43.406;24.454;2023-04-27T04:10:55;77289.28;;;-144.09;100.00
8890;BME280;4481;43.406;24.454;2023-04-27T04:13:21;77278.81;;;-144.09;100.00
8890;BME280;4481;43.406;24.454;2023-04-27T04:15:48;77287.19;;;-144.09;100.00
8890;BME280;4481;43.406;24.454;2023-04-27T04:18:14;77287.19;;;-144.09;100.00
8890;BME280;4481;43.406;24.454;2023-04-27T04:20:41;77272.56;;;-144.09;100.00
8890;BME280;4481;43.406;24.454;2023-04-27T04:23:07;77266.28;;;-144.09;100.00
8890;BME280;4481;43.406;24.454;2023-04-27T04:25:33;77270.47;;;-144.09;100.00
8890;BME280;4481;43.406;24.454;2023-04-27T04:27:59;77270.47;;;-144.09;100.00
8890;BME280;4481;43.406;24.454;2023-04-27T04:30:26;77285.09;;;-144.09;100.00
8890;BME280;4481;43.406;24.454;2023-04-27T04:32:53;77283.00;;;-144.09;100.00
8890;BME280;4481;43.406;24.454;2023-04-27T04:35:19;77283.00;;;-144.09;100.00
8890;BME280;4481;43.406;24.454;2023-04-27T04:37:46;77266.28;;;-144.09;100.00
8890;BME280;4481;43.406;24.454;2023-04-27T04:40:12;77266.28;;;-144.09;100.00
8890;BME280;4481;43.406;24.454;2023-04-27T04:42:38;77266.28;;;-144.09;100.00
8890;BME280;4481;43.406;24.454;2023-04-27T04:45:05;77270.47;;;-144.09;100.00
8890;BME280;4481;43.406;24.454;2023-04-27T04:47:32;77276.72;;;-144.09;100.00
8890;BME280;4481;43.406;24.454;2023-04-27T04:49:59;77262.09;;;-144.09;100.00
8890;BME280;4481;43.406;24.454;2023-04-27T04:52:27;77228.66;;;-144.09;100.00
8890;BME280;4481;43.406;24.454;2023-04-27T04:54:53;77205.66;;;-144.09;100.00
8890;BME280;4481;43.406;24.454;2023-04-27T04:57:19;77222.38;;;-144.09;100.00
8890;BME280;4481;43.406;24.454;2023-04-27T04:59:46;77207.75;;;-144.09;99.86
8890;BME280;4481;43.406;24.454;2023-04-27T05:02:12;77191.03;;;-144.09;98.89
8890;BME280;4481;43.406;24.454;2023-04-27T05:04:38;77191.03;;;-144.09;98.32
8890;BME280;4481;43.406;24.454;2023-04-27T05:07:05;77180.59;;;-144.09;97.61
8890;BME280;4481;43.406;24.454;2023-04-27T05:09:32;77180.59;;;-144.09;97.90
8890;BME280;4481;43.406;24.454;2023-04-27T05:12:00;77180.59;;;-144.09;97.91
8890;BME280;4481;43.406;24.454;2023-04-27T05:14:26;77207.75;;;-144.09;97.69
8890;BME280;4481;43.406;24.454;2023-04-27T05:16:52;77216.13;;;-144.09;97.54
8890;BME280;4481;43.406;24.454;2023-04-27T05:19:18;77207.75;;;-144.09;97.92
8890;BME280;4481;43.406;24.454;2023-04-27T05:21:47;77182.69;;;-144.09;97.45
8890;BME280;4481;43.406;24.454;2023-04-27T05:24:14;77197.31;;;-144.09;96.50
8890;BME280;4481;43.406;24.454;2023-04-27T05:26:41;77161.78;;;-144.09;95.86
8890;BME280;4481;43.406;24.454;2023-04-27T05:29:08;77134.63;;;-144.09;93.61
8890;BME280;4481;43.406;24.454;2023-04-27T05:31:34;77094.91;;;-144.09;92.99
8890;BME280;4481;43.406;24.454;2023-04-27T05:34:00;77115.81;;;-144.09;92.94
8890;BME280;4481;43.406;24.454;2023-04-27T05:36:26;77111.63;;;-144.09;92.01
8890;BME280;4481;43.406;24.454;2023-04-27T05:38:53;77115.81;;;-144.09;91.67
8890;BME280;4481;43.406;24.454;2023-04-27T05:41:20;77132.53;;;-144.09;92.11
8890;BME280;4481;43.406;24.454;2023-04-27T05:43:46;77140.88;;;-144.09;93.05
8890;BME280;4481;43.406;24.454;2023-04-27T05:46:13;77147.16;;;-144.09;92.95
8890;BME280;4481;43.406;24.454;2023-04-27T05:48:39;77149.25;;;-144.09;92.94
8890;BME280;4481;43.406;24.454;2023-04-27T05:51:05;77136.69;;;-144.09;93.12
8890;BME280;4481;43.406;24.454;2023-04-27T05:53:32;77128.34;;;-144.09;92.65
8890;BME280;4481;43.406;24.454;2023-04-27T05:55:58;77124.16;;;-144.09;92.03
8890;BME280;4481;43.406;24.454;2023-04-27T05:58:26;77147.16;;;-144.09;92.79
8890;BME280;4481;43.406;24.454;2023-04-27T06:00:53;77159.69;;;-144.09;92.83
8890;BME280;4481;43.406;24.454;2023-04-27T06:03:19;77145.06;;;-144.09;93.75
8890;BME280;4481;43.406;24.454;2023-04-27T06:05:45;77103.25;;;-144.09;92.58
8890;BME280;4481;43.406;24.454;2023-04-27T06:08:11;77109.53;;;-144.09;92.30
8890;BME280;4481;43.406;24.454;2023-04-27T06:10:38;77115.81;;;-144.09;91.85
8890;BME280;4481;43.406;24.454;2023-04-27T06:13:04;77128.34;;;-144.09;90.84
8890;BME280;4481;43.406;24.454;2023-04-27T06:15:31;77113.72;;;-144.09;91.63
8890;BME280;4481;43.406;24.454;2023-04-27T06:17:57;77080.28;;;-144.09;90.45
8890;BME280;4481;43.406;24.454;2023-04-27T06:20:23;77063.56;;;-144.09;91.20
8890;BME280;4481;43.406;24.454;2023-04-27T06:22:49;77065.66;;;-144.09;90.30
8890;BME280;4481;43.406;24.454;2023-04-27T06:25:16;77063.56;;;-144.09;90.49
8890;BME280;4481;43.406;24.454;2023-04-27T06:27:42;77030.13;;;-144.09;90.72
8890;BME280;4481;43.406;24.454;2023-04-27T06:30:09;76994.59;;;-144.09;89.09
8890;BME280;4481;43.406;24.454;2023-04-27T06:32:36;76959.06;;;-144.09;87.32
8890;BME280;4481;43.406;24.454;2023-04-27T06:35:02;76915.19;;;-144.09;88.31
8890;BME280;4481;43.406;24.454;2023-04-27T06:37:29;76839.94;;;-144.09;85.59
8890;BME280;4481;43.406;24.454;2023-04-27T06:39:55;76785.63;;;-144.09;84.35
8890;BME280;4481;43.406;24.454;2023-04-27T06:42:21;76745.91;;;-144.09;82.73
8890;BME280;4481;43.406;24.454;2023-04-27T06:44:47;76664.41;;;-144.09;81.46
8890;BME280;4481;43.406;24.454;2023-04-27T06:47:13;76672.78;;;-144.09;81.22
8890;BME280;4481;43.406;24.454;2023-04-27T06:49:40;76702.03;;;-144.09;80.76
8890;BME280;4481;43.406;24.454;2023-04-27T06:52:06;76741.72;;;-144.09;82.43
8890;BME280;4481;43.406;24.454;2023-04-27T06:54:35;76735.47;;;-144.09;82.22
8890;BME280;4481;43.406;24.454;2023-04-27T06:57:02;76641.44;;;-144.09;81.94
8890;BME280;4481;43.406;24.454;2023-04-27T06:59:28;76635.16;;;-144.09;74.04
8890;BME280;4481;43.406;24.454;2023-04-27T07:01:54;76681.13;;;-144.09;68.65
8890;BME280;4481;43.406;24.454;2023-04-27T07:04:20;76685.31;;;-144.09;69.90
8890;BME280;4481;43.406;24.454;2023-04-27T07:06:47;76727.09;;;-144.09;69.80
8890;BME280;4481;43.406;24.454;2023-04-27T07:09:15;76760.53;;;-144.09;70.82
8890;BME280;4481;43.406;24.454;2023-04-27T07:11:41;76758.44;;;-144.09;71.63
8890;BME280;4481;43.406;24.454;2023-04-27T07:14:08;76748.00;;;-144.09;70.39
8890;BME280;4481;43.406;24.454;2023-04-27T07:16:34;76756.34;;;-144.09;70.85
8890;BME280;4481;43.406;24.454;2023-04-27T07:19:00;76802.34;;;-144.09;72.68
8890;BME280;4481;43.406;24.454;2023-04-27T07:21:26;76787.72;;;-144.09;71.84
8890;BME280;4481;43.406;24.454;2023-04-27T07:23:54;76775.16;;;-144.09;70.66
8890;BME280;4481;43.406;24.454;2023-04-27T07:26:20;76787.72;;;-144.09;71.04
8890;BME280;4481;43.406;24.454;2023-04-27T07:28:48;76748.00;;;-144.09;70.08
8890;BME280;4481;43.406;24.454;2023-04-27T07:31:15;76789.78;;;-144.09;70.90
8890;BME280;4481;43.406;24.454;2023-04-27T07:33:41;76791.88;;;-144.09;69.80
8890;BME280;4481;43.406;24.454;2023-04-27T07:36:07;76752.19;;;-144.09;70.77
8890;BME280;4481;43.406;24.454;2023-04-27T07:38:34;76733.38;;;-144.09;71.04
8890;BME280;4481;43.406;24.454;2023-04-27T07:41:01;76708.28;;;-144.09;69.77
8890;BME280;4481;43.406;24.454;2023-04-27T07:43:27;76739.63;;;-144.09;70.35
8890;BME280;4481;43.406;24.454;2023-04-27T07:45:54;76737.56;;;-144.09;70.34
8890;BME280;4481;43.406;24.454;2023-04-27T07:48:22;76743.81;;;-144.09;70.42
8890;BME280;4481;43.406;24.454;2023-04-27T07:50:49;76731.28;;;-144.09;69.97
8890;BME280;4481;43.406;24.454;2023-04-27T07:53:15;76689.50;;;-144.09;69.83
8890;BME280;4481;43.406;24.454;2023-04-27T07:55:41;76727.09;;;-144.09;69.31
8890;BME280;4481;43.406;24.454;2023-04-27T07:58:09;76718.75;;;-144.09;69.11
8890;BME280;4481;43.406;24.454;2023-04-27T08:00:36;76748.00;;;-144.09;70.19
8890;BME280;4481;43.406;24.454;2023-04-27T08:03:02;76743.81;;;-144.09;69.61
8890;BME280;4481;43.406;24.454;2023-04-27T08:05:29;76731.28;;;-144.09;69.79
8890;BME280;4481;43.406;24.454;2023-04-27T08:07:55;76674.88;;;-144.09;70.07
8890;BME280;4481;43.406;24.454;2023-04-27T08:10:22;76643.53;;;-144.09;69.73
8890;BME280;4481;43.406;24.454;2023-04-27T08:12:49;76630.97;;;-144.09;68.88
8890;BME280;4481;43.406;24.454;2023-04-27T08:15:16;76624.72;;;-144.09;69.33
8890;BME280;4481;43.406;24.454;2023-04-27T08:17:42;76645.59;;;-144.09;68.90
8890;BME280;4481;43.406;24.454;2023-04-27T08:20:09;76616.34;;;-144.09;67.87
8890;BME280;4481;43.406;24.454;2023-04-27T08:22:36;76578.75;;;-144.09;68.10
8890;BME280;4481;43.406;24.454;2023-04-27T08:25:04;76595.47;;;-144.09;68.55
8890;BME280;4481;43.406;24.454;2023-04-27T08:27:30;76513.97;;;-144.09;67.59
8890;BME280;4481;43.406;24.454;2023-04-27T08:29:57;76547.41;;;-144.09;67.21
8890;BME280;4481;43.406;24.454;2023-04-27T08:32:26;76568.28;;;-144.09;68.04
8890;BME280;4481;43.406;24.454;2023-04-27T08:34:52;76557.84;;;-144.09;68.48
8890;BME280;4481;43.406;24.454;2023-04-27T08:37:18;76518.16;;;-144.09;66.25
8890;BME280;4481;43.406;24.454;2023-04-27T08:39:46;76484.72;;;-144.09;65.30
8890;BME280;4481;43.406;24.454;2023-04-27T08:42:13;76536.94;;;-144.09;67.40
8890;BME280;4481;43.406;24.454;2023-04-27T08:44:39;76551.56;;;-144.09;67.77
8890;BME280;4481;43.406;24.454;2023-04-27T08:47:08;76528.59;;;-144.09;65.80
8890;BME280;4481;43.406;24.454;2023-04-27T08:49:35;76539.03;;;-144.09;66.38
8890;BME280;4481;43.406;24.454;2023-04-27T08:52:02;76551.56;;;-144.09;67.42
8890;BME280;4481;43.406;24.454;2023-04-27T08:54:30;76572.47;;;-144.09;67.82
8890;BME280;4481;43.406;24.454;2023-04-27T08:56:57;76549.50;;;-144.09;66.52
8890;BME280;4481;43.406;24.454;2023-04-27T08:59:24;76566.19;;;-144.09;67.38
8890;BME280;4481;43.406;24.454;2023-04-27T09:01:50;76547.41;;;-144.09;67.10
8890;BME280;4481;43.406;24.454;2023-04-27T09:04:16;76493.06;;;-144.09;66.74
8890;BME280;4481;43.406;24.454;2023-04-27T09:06:44;76528.59;;;-144.09;66.05
8890;BME280;4481;43.406;24.454;2023-04-27T09:09:20;76564.13;;;-144.09;67.16
8890;BME280;4481;43.406;24.454;2023-04-27T09:11:47;76587.09;;;-144.09;67.59
8890;BME280;4481;43.406;24.454;2023-04-27T09:14:16;76524.41;;;-144.09;67.43
8890;BME280;4481;43.406;24.454;2023-04-27T09:16:42;76501.44;;;-144.09;68.17
8890;BME280;4481;43.406;24.454;2023-04-27T09:19:09;76543.22;;;-144.09;66.77
8890;BME280;4481;43.406;24.454;2023-04-27T09:21:35;76564.13;;;-144.09;68.19
8890;BME280;4481;43.406;24.454;2023-04-27T09:24:10;76551.56;;;-144.09;66.54
8890;BME280;4481;43.406;24.454;2023-04-27T09:26:36;76522.31;;;-144.09;67.41
8890;BME280;4481;43.406;24.454;2023-04-27T09:29:03;76520.22;;;-144.09;68.26
8890;BME280;4481;43.406;24.454;2023-04-27T09:31:33;76484.72;;;-144.09;66.89
8890;BME280;4481;43.406;24.454;2023-04-27T09:33:59;76438.75;;;-144.09;66.30
8890;BME280;4481;43.406;24.454;2023-04-27T09:36:26;76417.84;;;-144.09;65.94
8890;BME280;4481;43.406;24.454;2023-04-27T09:38:56;76405.31;;;-144.09;66.15
8890;BME280;4481;43.406;24.454;2023-04-27T09:41:24;76401.13;;;-144.09;66.14
8890;BME280;4481;43.406;24.454;2023-04-27T09:43:51;76401.13;;;-144.09;66.41
8890;BME280;4481;43.406;24.454;2023-04-27T09:46:19;76367.69;;;-144.09;65.99
8890;BME280;4481;43.406;24.454;2023-04-27T09:48:46;76378.16;;;-144.09;66.57
8890;BME280;4481;43.406;24.454;2023-04-27T09:51:14;76376.06;;;-144.09;65.52
8890;BME280;4481;43.406;24.454;2023-04-27T09:53:45;76361.44;;;-144.09;65.47
8890;BME280;4481;43.406;24.454;2023-04-27T09:56:26;76363.53;;;-144.09;64.17
8890;BME280;4481;43.406;24.454;2023-04-27T09:59:17;76388.59;;;-144.09;64.56
8890;BME280;4481;43.406;24.454;2023-04-27T10:01:50;76396.94;;;-144.09;65.38
8890;BME280;4481;43.406;24.454;2023-04-27T10:04:31;76365.63;;;-144.09;66.15
8890;BME280;4481;43.406;24.454;2023-04-27T10:07:01;76361.44;;;-144.09;65.79
8890;BME280;4481;43.406;24.454;2023-04-27T10:09:35;76388.59;;;-144.09;65.67
8890;BME280;4481;43.406;24.454;2023-04-27T10:12:14;76346.81;;;-144.09;65.86
8890;BME280;4481;43.406;24.454;2023-04-27T10:14:52;76344.72;;;-144.09;65.21
8890;BME280;4481;43.406;24.454;2023-04-27T10:17:22;76342.63;;;-144.09;65.49
8890;BME280;4481;43.406;24.454;2023-04-27T10:19:54;76282.03;;;-144.09;64.26
8890;BME280;4481;43.406;24.454;2023-04-27T10:22:21;76325.91;;;-144.09;63.77
8890;BME280;4481;43.406;24.454;2023-04-27T10:24:48;76353.06;;;-144.09;64.85
8890;BME280;4481;43.406;24.454;2023-04-27T10:27:17;76373.97;;;-144.09;64.58
8890;BME280;4481;43.406;24.454;2023-04-27T10:29:45;76357.25;;;-144.09;65.12
8890;BME280;4481;43.406;24.454;2023-04-27T10:32:17;76367.69;;;-144.09;64.91
8890;BME280;4481;43.406;24.454;2023-04-27T10:34:45;76359.34;;;-144.09;64.63
8890;BME280;4481;43.406;24.454;2023-04-27T10:37:12;76313.38;;;-144.09;64.24
8890;BME280;4481;43.406;24.454;2023-04-27T10:39:40;76342.63;;;-144.09;64.53
8890;BME280;4481;43.406;24.454;2023-04-27T10:42:07;76328.00;;;-144.09;64.63
8890;BME280;4481;43.406;24.454;2023-04-27T10:44:35;76344.72;;;-144.09;62.06
8890;BME280;4481;43.406;24.454;2023-04-27T10:47:12;76334.28;;;-144.09;61.66
8890;BME280;4481;43.406;24.454;2023-04-27T10:49:38;76346.81;;;-144.09;61.12
8890;BME280;4481;43.406;24.454;2023-04-27T10:52:05;76363.53;;;-144.09;62.09
8890;BME280;4481;43.406;24.454;2023-04-27T10:54:31;76363.53;;;-144.09;62.66
8890;BME280;4481;43.406;24.454;2023-04-27T10:57:02;76363.53;;;-144.09;61.25
8890;BME280;4481;43.406;24.454;2023-04-27T10:59:28;76332.19;;;-144.09;62.23
8890;BME280;4481;43.406;24.454;2023-04-27T11:01:55;76338.44;;;-144.09;63.66
8890;BME280;4481;43.406;24.454;2023-04-27T11:04:21;76330.09;;;-144.09;62.74
8890;BME280;4481;43.406;24.454;2023-04-27T11:06:48;76357.25;;;-144.09;62.77
8890;BME280;4481;43.406;24.454;2023-04-27T11:09:24;76407.41;;;-144.09;61.18
8890;BME280;4481;43.406;24.454;2023-04-27T11:11:51;76392.78;;;-144.09;62.56
8890;BME280;4481;43.406;24.454;2023-04-27T11:14:19;76371.88;;;-144.09;60.87
8890;BME280;4481;43.406;24.454;2023-04-27T11:16:46;76363.53;;;-144.09;59.52
8890;BME280;4481;43.406;24.454;2023-04-27T11:19:13;76330.09;;;-144.09;59.84
8890;BME280;4481;43.406;24.454;2023-04-27T11:21:39;76332.19;;;-144.09;58.92
8890;BME280;4481;43.406;24.454;2023-04-27T11:24:07;76359.34;;;-144.09;59.54
8890;BME280;4481;43.406;24.454;2023-04-27T11:26:34;76369.78;;;-144.09;59.80
8890;BME280;4481;43.406;24.454;2023-04-27T11:29:01;76346.81;;;-144.09;59.03
8890;BME280;4481;43.406;24.454;2023-04-27T11:31:38;76325.91;;;-144.09;57.98
8890;BME280;4481;43.406;24.454;2023-04-27T11:34:05;76319.66;;;-144.09;57.93
8890;BME280;4481;43.406;24.454;2023-04-27T11:36:32;76315.47;;;-144.09;58.64
8890;BME280;4481;43.406;24.454;2023-04-27T11:38:58;76305.03;;;-144.09;58.76
8890;BME280;4481;43.406;24.454;2023-04-27T11:41:32;76334.28;;;-144.09;60.00
8890;BME280;4481;43.406;24.454;2023-04-27T11:44:03;76344.72;;;-144.09;60.38
8890;BME280;4481;43.406;24.454;2023-04-27T11:46:30;76315.47;;;-144.09;60.11
8890;BME280;4481;43.406;24.454;2023-04-27T11:49:00;76357.25;;;-144.09;60.28
8890;BME280;4481;43.406;24.454;2023-04-27T11:51:28;76369.78;;;-144.09;60.14
8890;BME280;4481;43.406;24.454;2023-04-27T11:54:00;76380.25;;;-144.09;61.20
8890;BME280;4481;43.406;24.454;2023-04-27T11:56:33;76346.81;;;-144.09;59.11
8890;BME280;4481;43.406;24.454;2023-04-27T11:59:00;76350.97;;;-144.09;60.27
8890;BME280;4481;43.406;24.454;2023-04-27T12:01:27;76346.81;;;-144.09;59.63
8890;BME280;4481;43.406;24.454;2023-04-27T12:03:53;76359.34;;;-144.09;58.68
8890;BME280;4481;43.406;24.454;2023-04-27T12:06:23;76386.50;;;-144.09;60.03
8890;BME280;4481;43.406;24.454;2023-04-27T12:08:49;76373.97;;;-144.09;58.58
8890;BME280;4481;43.406;24.454;2023-04-27T12:11:16;76430.38;;;-144.09;58.26
8890;BME280;4481;43.406;24.454;2023-04-27T12:13:42;76442.91;;;-144.09;58.27
8890;BME280;4481;43.406;24.454;2023-04-27T12:16:08;76413.66;;;-144.09;58.19
8890;BME280;4481;43.406;24.454;2023-04-27T12:18:35;76445.00;;;-144.09;58.64
8890;BME280;4481;43.406;24.454;2023-04-27T12:21:01;76470.09;;;-144.09;57.26
8890;BME280;4481;43.406;24.454;2023-04-27T12:23:27;76499.34;;;-144.09;58.72
8890;BME280;4481;43.406;24.454;2023-04-27T12:25:53;76547.41;;;-144.09;63.33
8890;BME280;4481;43.406;24.454;2023-04-27T12:28:20;76597.56;;;-144.09;65.62
8890;BME280;4481;43.406;24.454;2023-04-27T12:30:47;76614.25;;;-144.09;70.90
8890;BME280;4481;43.406;24.454;2023-04-27T12:33:14;76572.47;;;-144.09;70.95
8890;BME280;4481;43.406;24.454;2023-04-27T12:35:41;76541.13;;;-144.09;68.91
8890;BME280;4481;43.406;24.454;2023-04-27T12:38:07;76495.16;;;-144.09;69.48
8890;BME280;4481;43.406;24.454;2023-04-27T12:40:33;76478.44;;;-144.09;69.57
8890;BME280;4481;43.406;24.454;2023-04-27T12:43:00;76480.53;;;-144.09;67.54
8890;BME280;4481;43.406;24.454;2023-04-27T12:45:27;76518.16;;;-144.09;70.10